Dry air prevailed across our islands with fair weather and shallow clouds today. There is chance for a few showers tonight and Tuesday and scattered showers are anticipated across St. Vincent and the Grenadines (SVG) Wednesday and Thursday.

Moderate (20 - 35km/h) breeze varying between east northeast and southeast is expected across St.Vincent and the Grenadines (SVG) tonight into Tuesday, gradually decreasing to occasionally gentle southeasterly flow during Wednesday and Thursday.

Moderate to rough (1.5 – 3.5 m) sea conditions across SVG, with northerly long-period swells

Aviation WX

[Source: ADDS]
METAR
TVSA 280100Z 00000KT 9999 SCT018 25/21 Q1015 =
TVSA 272300Z 2800/2824 11008KT 9999 SCT022
TAF
TVSA 272300Z 2800/2824 11008KT 9999 SCT022 =
SR / SS: 10:31 / 22:02 UTC (Sunrise Sunset 2020-01-27)